Time;durP1;ratioP1;P1;durP2;ratioP2;P2;SDS_P1;SDS_P2;PMS_P1;PMS_P2;Temp;Humidity;BMP_temperature;BMP_pressure;BME280_temperature;BME280_humidity;BME280_pressure;Samples;Min_cycle;Max_cycle;Signal;HPM_P1;HPM_P2
2024/03/18 00:02:02;;;;;;;7.03;5.70;;;16.50;59.90;;;;;;5025352;28;20188;-60
2024/03/18 00:04:27;;;;;;;6.30;5.60;;;16.40;60.00;;;;;;5024959;28;20668;-62
2024/03/18 00:06:53;;;;;;;8.20;5.60;;;16.30;60.60;;;;;;5025471;28;20672;-59
2024/03/18 00:09:19;;;;;;;6.50;4.80;;;16.20;61.20;;;;;;5023409;28;20173;-59
2024/03/18 00:11:44;;;;;;;6.23;5.63;;;16.20;61.60;;;;;;5025862;28;20272;-62
2024/03/18 00:14:10;;;;;;;7.13;5.53;;;16.20;61.60;;;;;;5021147;28;20190;-61
2024/03/18 00:16:36;;;;;;;12.40;6.30;;;16.10;61.70;;;;;;5024710;28;20201;-63
2024/03/18 00:19:02;;;;;;;6.00;5.40;;;16.10;61.90;;;;;;5025300;28;20309;-62
2024/03/18 00:21:27;;;;;;;5.80;5.20;;;16.10;62.00;;;;;;5024157;28;20646;-60
2024/03/18 00:23:53;;;;;;;7.53;6.03;;;16.00;62.10;;;;;;5024416;28;20263;-60
2024/03/18 00:26:18;;;;;;;5.93;5.37;;;16.00;62.30;;;;;;5022685;28;20232;-59
2024/03/18 00:28:44;;;;;;;9.27;6.47;;;16.00;62.30;;;;;;5023628;28;20268;-63
2024/03/18 00:31:12;;;;;;;7.37;6.30;;;16.00;62.50;;;;;;5027374;28;20181;-62
2024/03/18 00:33:38;;;;;;;6.10;5.50;;;16.00;62.50;;;;;;5022873;28;20189;-63
2024/03/18 00:36:04;;;;;;;6.67;5.10;;;16.00;62.60;;;;;;5026217;28;20429;-65
2024/03/18 00:38:30;;;;;;;6.70;5.50;;;15.90;62.80;;;;;;5020808;28;20177;-61
2024/03/18 00:43:39;;;;;;;6.00;5.40;;;15.90;63.10;;;;;;5024227;28;20301;-58
2024/03/18 00:46:05;;;;;;;6.00;5.40;;;16.00;63.20;;;;;;5023657;28;20500;-59
2024/03/18 00:48:31;;;;;;;6.10;5.50;;;16.00;63.30;;;;;;5023250;28;20212;-61
2024/03/18 00:50:57;;;;;;;6.00;5.50;;;16.00;63.30;;;;;;5023457;28;20255;-61
2024/03/18 00:53:22;;;;;;;6.50;5.73;;;16.00;63.30;;;;;;5019792;28;20265;-63
2024/03/18 00:55:49;;;;;;;6.00;5.40;;;16.00;63.30;;;;;;5021523;28;20507;-59
2024/03/18 00:58:14;;;;;;;6.17;5.57;;;15.90;63.30;;;;;;5023720;28;20221;-62
2024/03/18 01:00:40;;;;;;;6.13;5.07;;;15.90;63.60;;;;;;5021789;28;21007;-61
2024/03/18 01:03:05;;;;;;;5.47;4.97;;;15.90;63.70;;;;;;5021522;28;20588;-58
2024/03/18 01:05:31;;;;;;;7.93;5.20;;;16.00;63.80;;;;;;5027996;28;20197;-59
2024/03/18 01:07:57;;;;;;;6.87;5.20;;;16.00;63.50;;;;;;5018692;28;20312;-63
2024/03/18 01:10:22;;;;;;;7.23;5.53;;;15.80;63.70;;;;;;5028284;28;20186;-64
2024/03/18 01:12:48;;;;;;;7.07;5.13;;;15.80;63.90;;;;;;5015264;28;20681;-64
2024/03/18 01:15:15;;;;;;;5.40;4.90;;;15.60;64.30;;;;;;5008303;28;20228;-63
2024/03/18 01:17:40;;;;;;;5.00;4.50;;;15.40;65.60;;;;;;5023920;28;20255;-63
2024/03/18 01:20:15;;;;;;;5.10;4.70;;;15.30;66.00;;;;;;5023133;28;20536;-64
2024/03/18 01:22:41;;;;;;;6.00;5.37;;;15.40;66.00;;;;;;5024112;28;20193;-63
2024/03/18 01:25:13;;;;;;;6.70;5.50;;;15.60;65.60;;;;;;5020685;28;20429;-63
2024/03/18 01:27:39;;;;;;;6.20;5.57;;;15.70;65.20;;;;;;5022206;28;20431;-63
2024/03/18 01:30:10;;;;;;;5.40;5.00;;;15.70;65.00;;;;;;5020557;28;20959;-64
2024/03/18 01:32:37;;;;;;;6.57;5.47;;;15.70;65.00;;;;;;5025218;28;20486;-64
2024/03/18 01:35:07;;;;;;;7.87;5.17;;;15.60;65.30;;;;;;5019396;28;20444;-64
2024/03/18 01:37:34;;;;;;;5.97;5.13;;;15.60;65.60;;;;;;5023892;28;20448;-63
2024/03/18 01:40:00;;;;;;;5.87;5.27;;;15.70;65.40;;;;;;5023324;28;20798;-64
2024/03/18 01:42:26;;;;;;;6.90;4.90;;;15.70;65.20;;;;;;5022596;28;20416;-64
2024/03/18 01:44:54;;;;;;;11.37;5.70;;;15.70;65.10;;;;;;5022791;28;20205;-64
2024/03/18 01:47:21;;;;;;;8.00;5.40;;;15.60;65.00;;;;;;5020935;28;20204;-62
2024/03/18 01:49:48;;;;;;;5.97;5.10;;;15.60;65.30;;;;;;5021533;28;20432;-63
2024/03/18 01:52:15;;;;;;;7.17;5.33;;;15.40;65.20;;;;;;5026657;28;20416;-63
2024/03/18 01:54:42;;;;;;;5.70;5.20;;;15.40;66.20;;;;;;5020267;28;20447;-63
2024/03/18 01:57:09;;;;;;;5.77;5.17;;;15.20;66.90;;;;;;5021335;28;20444;-63
2024/03/18 01:59:35;;;;;;;6.23;5.13;;;15.10;67.50;;;;;;5017818;28;20424;-63
2024/03/18 02:02:00;;;;;;;8.77;5.97;;;14.90;68.00;;;;;;5024672;28;20420;-63
2024/03/18 02:04:26;;;;;;;6.70;6.00;;;15.00;68.00;;;;;;5016063;28;20266;-63
2024/03/18 02:09:20;;;;;;;7.57;5.40;;;15.10;67.40;;;;;;5023730;28;20217;-63
2024/03/18 02:11:49;;;;;;;6.90;5.73;;;15.20;67.00;;;;;;5029639;28;20443;-63
2024/03/18 02:14:15;;;;;;;6.53;5.63;;;15.40;66.70;;;;;;5025137;28;20433;-65
2024/03/18 02:16:42;;;;;;;6.23;4.93;;;15.30;66.50;;;;;;5025612;28;20452;-60
2024/03/18 02:19:08;;;;;;;6.47;5.97;;;15.30;67.40;;;;;;5024043;28;20962;-64
2024/03/18 02:21:34;;;;;;;5.63;5.13;;;15.40;66.60;;;;;;5029369;28;20495;-63
2024/03/18 02:24:00;;;;;;;7.50;5.50;;;15.50;66.30;;;;;;5023121;28;20304;-62
2024/03/18 02:26:25;;;;;;;5.33;4.90;;;15.50;66.10;;;;;;5028503;28;20578;-59
2024/03/18 02:28:51;;;;;;;5.03;4.53;;;15.50;65.90;;;;;;5021026;28;20764;-59
2024/03/18 02:31:17;;;;;;;6.80;5.00;;;15.50;65.70;;;;;;5028510;28;20187;-58
2024/03/18 02:33:44;;;;;;;5.60;5.17;;;15.50;65.40;;;;;;5025090;28;20455;-63
2024/03/18 02:36:09;;;;;;;6.00;4.33;;;15.50;65.50;;;;;;5026981;28;21179;-62
2024/03/18 02:38:35;;;;;;;6.90;4.67;;;15.50;65.10;;;;;;5022777;28;20511;-62
2024/03/18 02:41:00;;;;;;;6.53;5.30;;;15.30;65.90;;;;;;5026267;28;20189;-60
2024/03/18 02:43:26;;;;;;;6.00;5.00;;;15.30;65.80;;;;;;5022055;28;20205;-63
2024/03/18 02:45:52;;;;;;;5.37;4.83;;;15.30;66.00;;;;;;5025124;28;20185;-63
2024/03/18 02:48:23;;;;;;;5.87;4.77;;;15.20;66.40;;;;;;5025636;28;20208;-59
2024/03/18 02:50:49;;;;;;;7.43;5.40;;;15.10;66.70;;;;;;5023996;28;20284;-62
2024/03/18 02:53:14;;;;;;;6.37;5.23;;;15.00;66.80;;;;;;5025393;28;20984;-63
2024/03/18 02:55:40;;;;;;;5.37;4.67;;;15.00;67.40;;;;;;5022483;28;20243;-64
2024/03/18 02:58:05;;;;;;;5.53;5.03;;;15.10;67.10;;;;;;5023548;28;20224;-62
2024/03/18 03:00:31;;;;;;;6.10;5.13;;;15.20;66.90;;;;;;5028356;28;20264;-60
2024/03/18 03:02:57;;;;;;;5.50;5.10;;;15.20;66.50;;;;;;5022309;28;20194;-62
2024/03/18 03:05:22;;;;;;;5.67;5.13;;;15.20;66.30;;;;;;5028926;28;20228;-63
2024/03/18 03:07:48;;;;;;;5.70;5.30;;;15.30;66.10;;;;;;5024873;28;20220;-64
2024/03/18 03:10:14;;;;;;;6.07;5.47;;;15.20;65.80;;;;;;5023232;28;20550;-60
2024/03/18 03:12:40;;;;;;;5.53;5.00;;;15.20;65.90;;;;;;5026208;28;20265;-61
2024/03/18 03:15:06;;;;;;;5.13;4.63;;;15.40;65.70;;;;;;5021562;28;20520;-61
2024/03/18 03:17:33;;;;;;;5.20;4.70;;;15.30;65.50;;;;;;5024348;28;20457;-62
2024/03/18 03:19:58;;;;;;;7.27;5.27;;;15.10;66.00;;;;;;5026026;28;20435;-63
2024/03/18 03:22:24;;;;;;;5.63;5.13;;;14.80;67.70;;;;;;5023881;28;20846;-64
2024/03/18 03:24:50;;;;;;;5.33;4.83;;;14.70;68.10;;;;;;5025161;28;20225;-60
2024/03/18 03:27:16;;;;;;;6.00;5.40;;;14.70;68.50;;;;;;5024789;28;20555;-59
2024/03/18 03:29:42;;;;;;;5.53;4.93;;;14.80;68.90;;;;;;5026782;28;20186;-59
2024/03/18 03:32:13;;;;;;;6.00;5.40;;;14.60;68.70;;;;;;5022966;28;20182;-59
2024/03/18 03:34:38;;;;;;;5.37;4.87;;;14.40;70.00;;;;;;5025405;28;20523;-63
2024/03/18 03:37:04;;;;;;;6.43;4.90;;;14.20;72.10;;;;;;5021424;28;20527;-63
2024/03/18 03:39:30;;;;;;;5.90;4.83;;;14.10;72.00;;;;;;5027412;28;20189;-64
2024/03/18 03:41:55;;;;;;;6.63;5.63;;;13.90;73.40;;;;;;5025736;28;20209;-66
2024/03/18 03:44:21;;;;;;;7.10;5.20;;;14.00;73.30;;;;;;5022635;28;20263;-63
2024/03/18 03:46:50;;;;;;;5.53;5.03;;;14.20;73.00;;;;;;5024664;28;20585;-62
2024/03/18 03:49:19;;;;;;;7.27;5.13;;;14.30;72.10;;;;;;5028311;28;20436;-60
2024/03/18 03:51:45;;;;;;;5.67;5.10;;;14.40;71.70;;;;;;5022910;28;20504;-64
2024/03/18 03:54:11;;;;;;;5.63;4.87;;;14.30;71.40;;;;;;5026852;28;20426;-62
2024/03/18 03:56:37;;;;;;;6.30;5.70;;;14.20;72.00;;;;;;5020053;28;20536;-64
2024/03/18 03:59:02;;;;;;;7.00;5.47;;;14.10;72.70;;;;;;5026684;28;20624;-60
2024/03/18 04:01:28;;;;;;;5.43;4.90;;;13.80;74.20;;;;;;5023999;28;20435;-61
2024/03/18 04:03:54;;;;;;;8.47;5.43;;;13.90;74.40;;;;;;5025691;28;20228;-61
2024/03/18 04:06:19;;;;;;;6.00;5.30;;;13.90;73.90;;;;;;5026833;28;20212;-61
2024/03/18 04:08:45;;;;;;;5.43;4.97;;;13.80;74.30;;;;;;5025719;28;20201;-64
2024/03/18 04:11:10;;;;;;;4.67;4.27;;;13.90;74.40;;;;;;5022961;28;20642;-61
2024/03/18 04:13:36;;;;;;;7.10;4.87;;;14.00;73.10;;;;;;5025183;28;20562;-64
2024/03/18 04:16:02;;;;;;;6.07;4.77;;;14.00;73.30;;;;;;5021857;28;20264;-62
2024/03/18 04:18:29;;;;;;;5.87;4.40;;;14.00;72.50;;;;;;5023952;28;20455;-62
2024/03/18 04:20:54;;;;;;;6.07;5.00;;;14.20;72.10;;;;;;5029838;28;20178;-63
2024/03/18 04:23:20;;;;;;;5.60;5.20;;;14.20;71.60;;;;;;5026465;28;20517;-59
2024/03/18 04:25:46;;;;;;;6.27;5.63;;;14.30;71.40;;;;;;5029293;28;20197;-60
2024/03/18 04:28:11;;;;;;;5.27;4.87;;;14.40;70.80;;;;;;5024937;28;20644;-64
2024/03/18 04:30:37;;;;;;;6.07;4.93;;;14.50;70.10;;;;;;5027807;28;20182;-65
2024/03/18 04:33:04;;;;;;;5.37;4.87;;;14.50;69.90;;;;;;5029736;28;20259;-62
2024/03/18 04:35:30;;;;;;;5.10;4.60;;;14.50;69.80;;;;;;5026257;28;20702;-60
2024/03/18 04:37:56;;;;;;;9.80;5.20;;;14.70;69.60;;;;;;5028641;28;20488;-68
2024/03/18 04:40:26;;;;;;;5.40;4.97;;;14.70;69.30;;;;;;5028458;28;20205;-64
2024/03/18 04:42:52;;;;;;;5.50;5.00;;;14.80;69.10;;;;;;5030396;28;20272;-65
2024/03/18 04:45:20;;;;;;;6.60;5.20;;;14.90;68.70;;;;;;5025933;28;20927;-62
2024/03/18 04:47:47;;;;;;;8.30;4.93;;;14.80;68.40;;;;;;5028505;28;20451;-65
2024/03/18 04:50:15;;;;;;;6.20;5.57;;;14.90;68.50;;;;;;5025577;28;20551;-61
2024/03/18 04:52:41;;;;;;;5.43;4.80;;;14.70;68.40;;;;;;5028483;28;20442;-61
2024/03/18 04:55:08;;;;;;;5.27;4.73;;;14.60;68.60;;;;;;5022863;28;20420;-60
2024/03/18 04:57:34;;;;;;;7.40;5.23;;;14.40;69.30;;;;;;5026780;28;20945;-64
2024/03/18 05:00:00;;;;;;;5.63;5.10;;;14.30;70.10;;;;;;5027174;28;20433;-64
2024/03/18 05:02:25;;;;;;;7.23;5.40;;;14.30;70.10;;;;;;5025920;28;20489;-62
2024/03/18 05:04:51;;;;;;;5.90;5.37;;;14.20;70.40;;;;;;5029628;28;20274;-63
2024/03/18 05:07:17;;;;;;;9.77;5.60;;;14.20;70.70;;;;;;5030910;28;20220;-60
2024/03/18 05:09:44;;;;;;;6.03;4.93;;;14.30;70.40;;;;;;5026037;28;20819;-61
2024/03/18 05:12:10;;;;;;;6.13;5.30;;;14.30;70.40;;;;;;5029953;28;20200;-63
2024/03/18 05:14:36;;;;;;;6.67;5.63;;;14.30;70.80;;;;;;5022345;28;20784;-63
2024/03/18 05:17:01;;;;;;;6.53;5.67;;;14.30;70.60;;;;;;5028571;28;20470;-62
2024/03/18 05:19:27;;;;;;;7.60;5.17;;;14.40;70.70;;;;;;5026606;28;20177;-60
2024/03/18 05:21:52;;;;;;;5.80;4.90;;;14.40;70.60;;;;;;5029731;28;20188;-61
2024/03/18 05:24:18;;;;;;;7.20;5.80;;;14.40;70.80;;;;;;5024172;28;20255;-63
2024/03/18 05:26:43;;;;;;;7.33;5.37;;;14.30;71.80;;;;;;5027592;28;20240;-66
2024/03/18 05:29:10;;;;;;;5.53;4.60;;;14.40;71.40;;;;;;5023658;28;20588;-65
2024/03/18 05:31:35;;;;;;;5.30;4.80;;;14.40;71.20;;;;;;5026406;28;20205;-62
2024/03/18 05:34:04;;;;;;;6.30;5.50;;;14.50;71.10;;;;;;5027088;28;20975;-59
2024/03/18 05:36:30;;;;;;;4.93;4.53;;;14.60;70.80;;;;;;5025483;28;20193;-62
2024/03/18 05:38:55;;;;;;;6.70;5.37;;;14.70;70.20;;;;;;5025572;28;20763;-63
2024/03/18 05:41:21;;;;;;;5.93;5.43;;;14.60;70.30;;;;;;5024852;28;20268;-62
2024/03/18 05:43:47;;;;;;;5.20;4.70;;;14.60;70.80;;;;;;5024191;28;20221;-63
2024/03/18 05:46:14;;;;;;;7.17;4.53;;;14.70;70.50;;;;;;5029329;28;20197;-62
2024/03/18 05:48:40;;;;;;;6.33;4.80;;;14.80;69.80;;;;;;5022610;28;20448;-64
2024/03/18 05:51:06;;;;;;;7.67;5.10;;;14.90;69.40;;;;;;5029893;28;20489;-62
2024/03/18 05:53:31;;;;;;;6.77;4.77;;;14.90;69.30;;;;;;5021485;28;20194;-58
2024/03/18 05:55:57;;;;;;;5.33;4.70;;;14.70;69.80;;;;;;5027666;28;20428;-62
2024/03/18 05:58:23;;;;;;;5.60;5.10;;;14.70;70.80;;;;;;5024048;28;20173;-63
2024/03/18 06:00:48;;;;;;;5.67;5.20;;;14.80;70.90;;;;;;5027703;28;20188;-66
2024/03/18 06:03:14;;;;;;;5.20;4.70;;;14.80;70.40;;;;;;5023336;28;20223;-62
2024/03/18 06:05:41;;;;;;;7.90;4.70;;;14.90;70.30;;;;;;5030649;28;20193;-59
2024/03/18 06:08:06;;;;;;;5.53;4.60;;;15.00;70.00;;;;;;5026167;28;20295;-62
2024/03/18 06:10:32;;;;;;;7.43;4.73;;;15.00;69.70;;;;;;5025695;28;20482;-62
2024/03/18 06:12:57;;;;;;;5.73;4.90;;;15.00;69.80;;;;;;5025783;28;20185;-60
2024/03/18 06:15:23;;;;;;;5.00;4.20;;;15.00;70.40;;;;;;5023869;28;20259;-62
2024/03/18 06:17:49;;;;;;;8.40;5.40;;;15.10;69.50;;;;;;5023465;28;20703;-64
2024/03/18 06:20:16;;;;;;;6.27;5.67;;;15.00;69.20;;;;;;5028700;28;20178;-61
2024/03/18 06:22:42;;;;;;;5.20;4.80;;;15.10;69.70;;;;;;5021853;28;20483;-59
2024/03/18 06:27:53;;;;;;;11.80;5.20;;;15.10;69.40;;;;;;5029004;28;20224;-64
2024/03/18 06:30:19;;;;;;;6.30;5.13;;;15.10;69.60;;;;;;5026157;28;20953;-64
2024/03/18 06:32:45;;;;;;;7.57;6.13;;;15.20;69.60;;;;;;5024806;28;20428;-64
2024/03/18 06:35:11;;;;;;;7.73;6.17;;;15.30;69.40;;;;;;5024339;28;20429;-60
2024/03/18 06:37:37;;;;;;;7.03;6.27;;;15.30;69.20;;;;;;5023881;28;20197;-63
2024/03/18 06:40:03;;;;;;;6.30;5.53;;;15.40;69.10;;;;;;5024140;28;20185;-63
2024/03/18 06:42:29;;;;;;;7.07;5.07;;;15.40;68.90;;;;;;5027849;28;20272;-61
2024/03/18 06:44:54;;;;;;;6.00;5.40;;;15.40;68.80;;;;;;5023369;28;20758;-62
2024/03/18 06:47:20;;;;;;;5.70;5.20;;;15.50;68.60;;;;;;5026060;28;20213;-62
2024/03/18 06:49:46;;;;;;;7.53;5.90;;;15.50;68.40;;;;;;5021523;28;20190;-60
2024/03/18 06:52:12;;;;;;;7.80;5.63;;;15.50;68.30;;;;;;5025694;28;20417;-58
2024/03/18 06:54:37;;;;;;;6.10;5.50;;;15.50;68.20;;;;;;5026876;28;20181;-62
2024/03/18 06:57:03;;;;;;;6.07;5.30;;;15.60;68.40;;;;;;5021899;28;20214;-65
2024/03/18 06:59:29;;;;;;;8.00;5.20;;;15.60;68.30;;;;;;5027153;28;20185;-61
2024/03/18 07:01:54;;;;;;;7.30;4.80;;;15.50;67.70;;;;;;5021247;28;20616;-62
2024/03/18 07:04:20;;;;;;;5.80;5.20;;;15.30;69.20;;;;;;5027074;28;20205;-61
2024/03/18 07:06:46;;;;;;;7.50;6.33;;;15.20;69.20;;;;;;5028192;28;20293;-62
2024/03/18 07:09:11;;;;;;;6.30;5.40;;;15.30;69.30;;;;;;5025494;28;20209;-62
2024/03/18 07:11:37;;;;;;;7.83;5.60;;;15.40;69.00;;;;;;5024970;28;20181;-61
2024/03/18 07:14:02;;;;;;;7.50;5.73;;;15.40;68.70;;;;;;5024525;28;20246;-62
2024/03/18 07:16:28;;;;;;;7.77;5.93;;;15.20;68.40;;;;;;5022320;28;20669;-62
2024/03/18 07:18:54;;;;;;;6.20;5.53;;;15.30;69.30;;;;;;5023993;28;20256;-63
2024/03/18 07:21:19;;;;;;;6.97;5.00;;;15.40;69.20;;;;;;5027115;28;20188;-64
2024/03/18 07:23:45;;;;;;;6.30;5.70;;;15.40;69.00;;;;;;5022852;28;20209;-59
2024/03/18 07:26:10;;;;;;;7.00;5.00;;;15.50;69.10;;;;;;5024179;28;20201;-61
2024/03/18 07:28:36;;;;;;;6.50;5.83;;;15.60;68.80;;;;;;5021954;28;20268;-61
2024/03/18 07:31:03;;;;;;;8.67;6.20;;;15.60;68.80;;;;;;5023680;28;20194;-63
2024/03/18 07:33:32;;;;;;;6.07;5.20;;;15.70;68.90;;;;;;5027315;28;20185;-63
2024/03/18 07:35:57;;;;;;;7.20;6.50;;;15.70;68.70;;;;;;5022280;28;20763;-64
2024/03/18 07:38:23;;;;;;;10.97;5.97;;;15.70;68.50;;;;;;5026717;28;20426;-60
2024/03/18 07:40:50;;;;;;;5.43;4.93;;;15.80;68.60;;;;;;5020302;28;20239;-60
2024/03/18 07:43:15;;;;;;;6.10;5.40;;;15.80;68.50;;;;;;5026400;28;20224;-63
2024/03/18 07:45:42;;;;;;;7.03;6.10;;;15.80;68.20;;;;;;5024612;28;20428;-58
2024/03/18 07:48:08;;;;;;;6.37;5.70;;;15.80;68.10;;;;;;5025284;28;20200;-59
2024/03/18 07:50:34;;;;;;;8.07;6.30;;;15.80;68.10;;;;;;5024258;28;20412;-59
2024/03/18 07:53:01;;;;;;;8.20;6.47;;;15.80;68.10;;;;;;5024404;28;20188;-64
2024/03/18 07:55:26;;;;;;;7.30;6.20;;;15.80;68.10;;;;;;5025549;28;20420;-59
2024/03/18 07:57:52;;;;;;;7.93;5.83;;;15.80;68.10;;;;;;5027519;28;20447;-64
2024/03/18 08:00:18;;;;;;;6.33;5.73;;;15.80;68.30;;;;;;5029835;28;20263;-65
2024/03/18 08:02:44;;;;;;;7.00;5.70;;;15.80;67.90;;;;;;5026537;28;20192;-64
2024/03/18 08:05:11;;;;;;;6.20;5.60;;;15.80;68.30;;;;;;5030689;28;20468;-64
2024/03/18 08:07:38;;;;;;;6.97;5.83;;;15.90;68.50;;;;;;5031004;28;20541;-59
2024/03/18 08:10:03;;;;;;;6.70;5.80;;;15.90;68.50;;;;;;5026376;28;20490;-62
2024/03/18 08:12:29;;;;;;;8.07;6.33;;;15.80;68.90;;;;;;5029028;28;20939;-61
2024/03/18 08:14:55;;;;;;;8.33;6.03;;;15.50;69.90;;;;;;5031760;28;20193;-62
2024/03/18 08:17:20;;;;;;;6.10;5.50;;;15.40;71.00;;;;;;5031376;28;20672;-63
2024/03/18 08:19:47;;;;;;;6.50;5.90;;;15.40;71.40;;;;;;5027644;28;20189;-64
2024/03/18 08:22:13;;;;;;;6.40;5.80;;;15.60;71.10;;;;;;5029163;28;20173;-64
2024/03/18 08:24:40;;;;;;;7.37;5.77;;;15.80;70.60;;;;;;5026372;28;20491;-63
2024/03/18 08:27:05;;;;;;;6.77;5.73;;;15.80;70.40;;;;;;5027951;28;20436;-61
2024/03/18 08:29:31;;;;;;;6.17;5.60;;;15.90;70.30;;;;;;5029463;28;20507;-61
2024/03/18 08:31:57;;;;;;;5.90;5.40;;;15.90;70.20;;;;;;5026227;28;20182;-64
2024/03/18 08:34:22;;;;;;;7.60;6.70;;;16.00;70.10;;;;;;5030660;28;20592;-62
2024/03/18 08:36:48;;;;;;;11.83;9.20;;;16.00;70.20;;;;;;5023413;28;20601;-63
2024/03/18 08:39:14;;;;;;;8.23;6.00;;;16.00;70.20;;;;;;5031276;28;20187;-60
2024/03/18 08:41:40;;;;;;;6.50;5.90;;;16.00;70.00;;;;;;5028109;28;20623;-61
2024/03/18 08:44:06;;;;;;;7.27;6.43;;;15.90;70.70;;;;;;5029782;28;20627;-62
2024/03/18 08:46:32;;;;;;;7.43;6.73;;;15.90;70.90;;;;;;5026129;28;20254;-58
2024/03/18 08:48:58;;;;;;;11.97;5.90;;;15.90;71.00;;;;;;5028756;28;20420;-60
2024/03/18 08:51:24;;;;;;;7.53;6.50;;;15.90;71.10;;;;;;5025350;28;20761;-60
2024/03/18 08:53:49;;;;;;;9.77;6.80;;;15.90;71.50;;;;;;5027945;28;20439;-62
2024/03/18 08:56:15;;;;;;;9.40;6.87;;;16.00;71.30;;;;;;5028775;28;20244;-64
2024/03/18 08:58:41;;;;;;;7.43;6.70;;;16.00;71.20;;;;;;5026373;28;20665;-60
2024/03/18 09:01:09;;;;;;;9.93;8.67;;;16.00;71.40;;;;;;5027812;28;20422;-59
2024/03/18 09:03:37;;;;;;;14.13;7.77;;;16.10;71.20;;;;;;5025401;28;20227;-66
2024/03/18 09:06:04;;;;;;;8.83;7.93;;;16.20;71.10;;;;;;5026613;28;20429;-63
2024/03/18 09:08:29;;;;;;;8.57;7.80;;;16.30;71.00;;;;;;5030543;28;20863;-63
2024/03/18 09:10:55;;;;;;;10.17;7.37;;;16.30;71.20;;;;;;5026652;28;20445;-63
2024/03/18 09:13:20;;;;;;;8.17;7.37;;;16.40;71.10;;;;;;5030590;28;20188;-60
2024/03/18 09:15:46;;;;;;;10.40;7.20;;;16.40;71.10;;;;;;5031661;28;20813;-60
2024/03/18 09:18:12;;;;;;;9.80;7.50;;;16.40;70.90;;;;;;5030095;28;20750;-59
2024/03/18 09:20:39;;;;;;;9.70;7.73;;;16.40;71.10;;;;;;5031549;28;20264;-59
2024/03/18 09:23:08;;;;;;;8.80;6.60;;;16.40;71.10;;;;;;5030094;28;20193;-66
2024/03/18 09:25:38;;;;;;;8.77;7.23;;;16.50;70.80;;;;;;5031413;28;20562;-64
2024/03/18 09:28:04;;;;;;;12.17;10.90;;;16.50;70.80;;;;;;5030129;28;20447;-61
2024/03/18 09:30:30;;;;;;;9.67;8.00;;;16.50;70.80;;;;;;5031330;28;20420;-62
2024/03/18 09:32:56;;;;;;;8.70;7.80;;;16.50;71.30;;;;;;5027135;28;20189;-65
2024/03/18 09:35:23;;;;;;;7.93;7.10;;;16.60;71.20;;;;;;5025285;28;20420;-62
2024/03/18 09:37:49;;;;;;;9.00;6.30;;;16.60;71.20;;;;;;5025795;28;20669;-59
2024/03/18 09:40:15;;;;;;;10.70;7.00;;;16.70;70.90;;;;;;5030024;28;20498;-62
2024/03/18 09:42:41;;;;;;;7.03;6.27;;;16.70;71.10;;;;;;5024418;28;20453;-62
2024/03/18 09:45:15;;;;;;;7.90;7.13;;;16.70;71.40;;;;;;5028382;28;20205;-60
2024/03/18 09:47:42;;;;;;;7.67;6.60;;;16.70;71.40;;;;;;5024034;28;20544;-59
2024/03/18 09:50:10;;;;;;;9.63;7.23;;;16.70;71.40;;;;;;5028980;28;20924;-63
2024/03/18 09:52:38;;;;;;;7.93;7.13;;;16.80;71.80;;;;;;5025707;28;20522;-63
2024/03/18 09:55:22;;;;;;;8.80;7.20;;;16.80;71.70;;;;;;5027053;28;20435;-64
2024/03/18 09:57:48;;;;;;;8.83;7.07;;;16.90;71.90;;;;;;5030107;28;20594;-63
2024/03/18 10:00:16;;;;;;;8.33;7.30;;;16.90;71.70;;;;;;5024804;28;20515;-63
2024/03/18 10:02:41;;;;;;;12.13;9.20;;;16.90;71.50;;;;;;5025442;28;20452;-62
2024/03/18 10:05:09;;;;;;;11.50;7.20;;;16.90;71.20;;;;;;5024711;28;21003;-63
2024/03/18 10:07:36;;;;;;;9.13;8.23;;;17.00;71.00;;;;;;5027762;28;20577;-65
2024/03/18 10:10:04;;;;;;;8.07;7.27;;;17.00;70.50;;;;;;5024034;28;21006;-64
2024/03/18 10:12:30;;;;;;;11.63;6.97;;;17.00;69.70;;;;;;5030257;28;20439;-64
2024/03/18 10:14:57;;;;;;;7.83;7.10;;;17.10;70.00;;;;;;5022133;28;20424;-61
2024/03/18 10:17:23;;;;;;;9.10;7.47;;;17.10;70.20;;;;;;5018614;28;20209;-62
2024/03/18 10:19:48;;;;;;;8.03;7.03;;;17.10;70.30;;;;;;5028220;28;20409;-63
2024/03/18 10:22:15;;;;;;;8.40;7.57;;;17.00;70.00;;;;;;5024441;28;20188;-63
2024/03/18 10:24:42;;;;;;;10.17;9.17;;;17.10;70.20;;;;;;5025872;28;20210;-60
2024/03/18 10:27:09;;;;;;;10.10;9.07;;;17.10;70.10;;;;;;5022524;28;20440;-59
2024/03/18 10:29:35;;;;;;;12.00;7.70;;;17.10;70.40;;;;;;5024858;28;20433;-65
2024/03/18 10:32:05;;;;;;;9.17;8.27;;;17.10;70.30;;;;;;5027385;28;20420;-63
2024/03/18 10:34:37;;;;;;;10.83;8.13;;;17.30;70.20;;;;;;5023099;28;20432;-62
2024/03/18 10:37:04;;;;;;;9.57;7.43;;;17.30;69.70;;;;;;5027497;28;20443;-63
2024/03/18 10:40:13;;;;;;;7.87;7.17;;;17.20;69.70;;;;;;5025192;28;20420;-60
2024/03/18 10:42:44;;;;;;;6.83;6.13;;;17.30;70.30;;;;;;4968275;28;20477;-62
2024/03/18 10:45:18;;;;;;;7.60;6.20;;;17.20;69.50;;;;;;5017224;28;20920;-62
2024/03/18 10:47:44;;;;;;;10.20;6.90;;;17.20;68.80;;;;;;5020749;28;20536;-60
2024/03/18 10:50:15;;;;;;;6.60;5.97;;;17.30;68.80;;;;;;5026756;28;20482;-60
2024/03/18 10:52:41;;;;;;;8.00;5.97;;;17.30;68.60;;;;;;5025051;28;20443;-64
2024/03/18 10:55:17;;;;;;;11.00;6.80;;;17.40;68.20;;;;;;5026598;28;20837;-65
2024/03/18 10:57:46;;;;;;;7.73;7.03;;;17.50;68.30;;;;;;5025098;28;20486;-64
2024/03/18 11:00:17;;;;;;;8.47;6.30;;;17.60;68.30;;;;;;5024037;28;20785;-60
2024/03/18 11:02:57;;;;;;;7.53;6.40;;;17.70;68.40;;;;;;5027710;28;20997;-63
2024/03/18 11:05:25;;;;;;;6.93;6.33;;;17.80;68.50;;;;;;5022102;28;20423;-64
2024/03/18 11:07:54;;;;;;;6.77;6.17;;;17.80;68.40;;;;;;5026100;28;20877;-61
2024/03/18 11:10:21;;;;;;;7.77;5.93;;;17.90;68.30;;;;;;5023398;28;20416;-60
2024/03/18 11:12:47;;;;;;;9.70;7.10;;;17.90;68.20;;;;;;5028589;28;20435;-63
2024/03/18 11:15:15;;;;;;;7.10;6.37;;;18.00;68.20;;;;;;5020939;28;20794;-63
2024/03/18 11:17:50;;;;;;;9.80;6.80;;;18.00;68.40;;;;;;5024264;28;20209;-63
2024/03/18 11:20:20;;;;;;;8.23;6.00;;;18.10;69.40;;;;;;5028652;28;20788;-62
2024/03/18 11:22:58;;;;;;;7.13;5.70;;;18.00;67.70;;;;;;5023499;28;20478;-63
2024/03/18 11:25:28;;;;;;;5.10;4.47;;;18.00;68.00;;;;;;5019711;28;20428;-63
2024/03/18 11:27:56;;;;;;;7.17;4.53;;;18.00;67.20;;;;;;5021090;28;20940;-61
2024/03/18 11:30:34;;;;;;;6.17;3.33;;;18.00;67.20;;;;;;5018306;28;20495;-64
2024/03/18 11:33:10;;;;;;;6.60;3.30;;;18.10;67.10;;;;;;5024991;28;20436;-62
2024/03/18 11:35:38;;;;;;;6.33;4.23;;;18.10;66.50;;;;;;5024075;28;20432;-63
2024/03/18 11:38:07;;;;;;;6.03;4.60;;;18.10;66.50;;;;;;5024525;28;20464;-64
2024/03/18 11:40:39;;;;;;;5.93;4.93;;;18.10;66.30;;;;;;5022939;28;20784;-59
2024/03/18 11:43:06;;;;;;;6.90;6.20;;;18.10;66.20;;;;;;5023378;28;21723;-64
2024/03/18 11:45:32;;;;;;;6.80;4.87;;;18.10;66.50;;;;;;5027098;28;21006;-63
2024/03/18 11:48:05;;;;;;;5.70;4.60;;;18.10;66.70;;;;;;5020110;28;20491;-62
2024/03/18 11:50:40;;;;;;;5.40;3.97;;;18.10;66.40;;;;;;5026125;28;20185;-63
2024/03/18 11:53:11;;;;;;;3.07;2.77;;;18.00;66.70;;;;;;5026587;28;20424;-61
2024/03/18 11:55:38;;;;;;;6.80;3.30;;;17.80;66.00;;;;;;5023132;28;20425;-62
2024/03/18 11:58:11;;;;;;;3.87;3.57;;;17.80;66.60;;;;;;5026836;28;20539;-63
2024/03/18 12:00:37;;;;;;;7.17;4.10;;;17.90;66.80;;;;;;5020536;28;20904;-64
2024/03/18 12:03:08;;;;;;;6.50;3.47;;;17.90;66.40;;;;;;5025333;28;20436;-61
2024/03/18 12:05:38;;;;;;;4.47;3.90;;;17.90;66.30;;;;;;5023003;28;20181;-64
2024/03/18 12:08:07;;;;;;;6.00;4.33;;;17.90;66.80;;;;;;5024610;28;20559;-64
2024/03/18 12:10:33;;;;;;;5.57;4.97;;;17.90;66.80;;;;;;5023543;28;20416;-63
2024/03/18 12:13:00;;;;;;;5.43;4.90;;;17.80;67.00;;;;;;5027019;28;20507;-63
2024/03/18 12:15:27;;;;;;;7.50;4.70;;;17.80;67.20;;;;;;5021623;28;20510;-59
2024/03/18 12:17:52;;;;;;;5.90;5.40;;;17.80;67.10;;;;;;5023286;28;20466;-62
2024/03/18 12:20:30;;;;;;;6.30;5.67;;;17.90;67.30;;;;;;5027753;28;20931;-63
2024/03/18 12:22:59;;;;;;;7.57;6.73;;;17.90;67.50;;;;;;5021996;28;20268;-65
2024/03/18 12:31:05;;;;;;;7.73;4.03;;;17.90;67.40;;;;;;5023105;28;20411;-63
2024/03/18 12:33:34;;;;;;;4.50;3.40;;;17.90;67.10;;;;;;5025589;28;20450;-64
2024/03/18 12:36:03;;;;;;;5.57;4.40;;;17.90;67.10;;;;;;5022268;28;20475;-64
2024/03/18 12:38:39;;;;;;;8.57;5.50;;;17.90;67.20;;;;;;5024110;28;20456;-63
2024/03/18 12:41:05;;;;;;;9.80;5.50;;;17.70;68.30;;;;;;5029028;28;20420;-66
2024/03/18 12:43:32;;;;;;;6.83;6.20;;;17.70;68.60;;;;;;5026940;28;20479;-63
2024/03/18 12:46:00;;;;;;;7.07;5.90;;;17.70;68.90;;;;;;5028207;28;20429;-64
2024/03/18 12:48:28;;;;;;;7.37;6.67;;;17.80;69.20;;;;;;5025508;28;20420;-64
2024/03/18 12:50:55;;;;;;;6.37;5.80;;;17.80;69.50;;;;;;5027105;28;20510;-65
2024/03/18 12:53:21;;;;;;;5.63;5.00;;;17.90;69.80;;;;;;5031394;28;20435;-63
2024/03/18 12:55:47;;;;;;;6.40;5.00;;;17.90;69.40;;;;;;5023925;28;20924;-64
2024/03/18 12:58:14;;;;;;;4.87;4.47;;;17.90;68.80;;;;;;5029560;28;20451;-63